Time;durP1;ratioP1;P1;durP2;ratioP2;P2;SDS_P1;SDS_P2;PMS_P1;PMS_P2;Temp;Humidity;BMP_temperature;BMP_pressure;BME280_temperature;BME280_humidity;BME280_pressure;Samples;Min_cycle;Max_cycle;Signal;HPM_P1;HPM_P2
2022/05/22 00:00:42;;;;;;;11.43;3.92;;;;;;;13.89;100.00;101537.09;5084317;28;20121;-74
2022/05/22 00:03:09;;;;;;;13.85;3.90;;;;;;;13.86;100.00;101535.91;5084237;28;20117;-74
2022/05/22 00:05:36;;;;;;;11.15;4.15;;;;;;;13.92;100.00;101533.50;5083249;28;20083;-75
2022/05/22 00:08:03;;;;;;;11.40;3.70;;;;;;;13.92;100.00;101525.97;5090646;28;20390;-74
2022/05/22 00:10:29;;;;;;;8.35;3.65;;;;;;;13.89;100.00;101529.53;5086302;28;20051;-74
2022/05/22 00:12:56;;;;;;;14.45;4.70;;;;;;;13.90;100.00;101520.00;5086066;28;20139;-73
2022/05/22 00:15:23;;;;;;;11.45;4.20;;;;;;;13.89;100.00;101517.59;5079724;28;20147;-74
2022/05/22 00:17:49;;;;;;;10.00;3.53;;;;;;;13.85;100.00;101520.41;5085624;28;20066;-75
2022/05/22 00:20:16;;;;;;;11.75;3.97;;;;;;;13.83;100.00;101508.88;5086644;28;20048;-76
2022/05/22 00:22:42;;;;;;;12.73;4.07;;;;;;;13.85;100.00;101517.63;5074481;28;20127;-74
2022/05/22 00:25:10;;;;;;;12.90;4.35;;;;;;;13.88;100.00;101516.84;5079969;28;20056;-74
2022/05/22 00:27:39;;;;;;;9.63;3.60;;;;;;;13.91;100.00;101509.66;5078205;28;20064;-74
2022/05/22 00:30:07;;;;;;;12.80;4.88;;;;;;;13.94;100.00;101515.22;5072797;28;20571;-74
2022/05/22 00:32:34;;;;;;;9.80;3.65;;;;;;;13.95;100.00;101519.59;5083178;28;20044;-76
2022/05/22 00:35:01;;;;;;;15.23;4.57;;;;;;;13.94;100.00;101514.44;5080950;28;20047;-73
2022/05/22 00:37:28;;;;;;;11.73;3.50;;;;;;;13.92;100.00;101523.19;5083100;28;20452;-74
2022/05/22 00:39:54;;;;;;;14.05;4.20;;;;;;;13.92;100.00;101525.97;5072458;28;20118;-76
2022/05/22 00:42:23;;;;;;;12.77;3.75;;;;;;;13.91;100.00;101529.16;5076752;28;20123;-75
2022/05/22 00:44:50;;;;;;;11.73;4.07;;;;;;;13.89;100.00;101523.97;5081990;28;20549;-75
2022/05/22 00:47:17;;;;;;;9.57;3.78;;;;;;;13.91;100.00;101521.56;5079380;28;20048;-75
2022/05/22 00:49:45;;;;;;;8.88;3.42;;;;;;;13.91;100.00;101509.66;5077606;28;20131;-74
2022/05/22 00:52:17;;;;;;;9.40;3.88;;;;;;;13.90;100.00;101514.44;5086424;28;20048;-74
2022/05/22 00:54:56;;;;;;;9.45;3.28;;;;;;;13.87;100.00;101509.66;5077753;28;20057;-74
2022/05/22 00:57:30;;;;;;;11.18;3.83;;;;;;;13.87;100.00;101515.22;5083618;28;20071;-75
2022/05/22 01:00:03;;;;;;;12.90;4.15;;;;;;;13.84;100.00;101504.91;5078537;28;20048;-76
2022/05/22 01:03:26;;;;;;;11.48;3.88;;;;;;;13.80;100.00;101498.56;5078107;28;20459;-74
2022/05/22 01:05:20;;;;;;;12.02;4.07;;;;;;;13.79;100.00;101508.09;5073977;28;20070;-74
2022/05/22 01:07:48;;;;;;;13.07;4.18;;;;;;;13.76;100.00;101500.56;5074883;28;20108;-74
2022/05/22 01:10:15;;;;;;;16.35;4.40;;;;;;;13.72;100.00;101497.00;5086590;28;20058;-73
2022/05/22 01:12:43;;;;;;;19.10;4.32;;;;;;;13.69;100.00;101486.66;5079842;28;20777;-74
2022/05/22 01:15:12;;;;;;;19.45;4.88;;;;;;;13.64;100.00;101480.72;5080846;28;20432;-74
2022/05/22 01:17:47;;;;;;;14.43;4.60;;;;;;;13.65;100.00;101477.53;5080559;28;20075;-74
2022/05/22 01:20:15;;;;;;;13.18;4.47;;;;;;;13.62;100.00;101469.19;5090583;28;20050;-73
2022/05/22 01:22:42;;;;;;;15.30;4.13;;;;;;;13.60;100.00;101466.81;5081740;28;20052;-75
2022/05/22 01:25:10;;;;;;;10.10;3.92;;;;;;;13.56;100.00;101474.34;5081229;28;20091;-74
2022/05/22 01:27:39;;;;;;;12.50;4.97;;;;;;;13.50;100.00;101473.16;5079046;28;20131;-74
2022/05/22 01:30:16;;;;;;;12.15;4.45;;;;;;;13.41;100.00;101477.56;5080254;28;20056;-75
2022/05/22 01:32:45;;;;;;;14.80;4.50;;;;;;;13.35;100.00;101479.94;5076213;28;20052;-75
2022/05/22 01:35:15;;;;;;;15.95;4.60;;;;;;;13.36;100.00;101477.97;5083951;28;20040;-77
2022/05/22 01:37:43;;;;;;;12.90;4.70;;;;;;;13.37;100.00;101474.00;5083820;28;20080;-77
2022/05/22 01:40:10;;;;;;;12.43;4.18;;;;;;;13.36;100.00;101470.41;5084800;28;20107;-75
2022/05/22 01:42:37;;;;;;;16.13;4.63;;;;;;;13.37;100.00;101479.53;5085104;28;20060;-75
2022/05/22 01:45:05;;;;;;;12.68;4.75;;;;;;;13.35;100.00;101493.03;5070339;28;20135;-75
2022/05/22 01:47:33;;;;;;;15.77;4.47;;;;;;;13.32;100.00;101489.06;5081650;28;20047;-75
2022/05/22 01:50:00;;;;;;;13.25;4.90;;;;;;;13.30;100.00;101496.22;5076574;28;20040;-75
2022/05/22 01:52:27;;;;;;;12.95;4.60;;;;;;;13.26;100.00;101487.88;5080595;28;20159;-75
2022/05/22 01:54:53;;;;;;;13.15;4.82;;;;;;;13.25;100.00;101482.72;5087410;28;20408;-75
2022/05/22 01:57:20;;;;;;;12.40;4.60;;;;;;;13.23;100.00;101483.09;5084229;28;20409;-75
2022/05/22 01:59:46;;;;;;;11.88;5.03;;;;;;;13.23;100.00;101485.09;5080610;28;20040;-75
2022/05/22 02:02:13;;;;;;;14.30;5.53;;;;;;;13.21;100.00;101490.25;5071926;28;20389;-76
2022/05/22 02:04:40;;;;;;;14.93;4.80;;;;;;;13.18;100.00;101483.53;5069669;28;20587;-75
2022/05/22 02:09:51;;;;;;;11.73;4.50;;;;;;;13.13;100.00;101474.78;5076741;28;20044;-75
2022/05/22 02:12:18;;;;;;;10.38;4.38;;;;;;;13.13;100.00;101477.56;5082656;28;20282;-76
2022/05/22 02:14:44;;;;;;;11.18;4.40;;;;;;;13.13;100.00;101474.78;5083629;28;20040;-75
2022/05/22 02:17:11;;;;;;;17.08;5.00;;;;;;;13.11;100.00;101472.41;5082430;28;20051;-75
2022/05/22 02:19:37;;;;;;;15.43;4.93;;;;;;;13.06;100.00;101467.22;5083946;28;20067;-75
2022/05/22 02:22:04;;;;;;;15.07;5.45;;;;;;;13.04;100.00;101458.50;5082225;28;20048;-76
2022/05/22 02:24:31;;;;;;;15.35;6.03;;;;;;;13.00;100.00;101455.72;5075800;28;20054;-73
2022/05/22 02:26:57;;;;;;;12.93;4.97;;;;;;;12.95;100.00;101450.53;5081192;28;20046;-76
2022/05/22 02:29:24;;;;;;;15.02;5.68;;;;;;;12.89;100.00;101449.34;5077028;28;20468;-74
2022/05/22 02:31:50;;;;;;;15.95;4.80;;;;;;;12.86;100.00;101443.78;5081997;28;20052;-75
2022/05/22 02:34:17;;;;;;;15.60;5.85;;;;;;;12.80;100.00;101425.91;5082046;28;20055;-75
2022/05/22 02:36:45;;;;;;;16.52;5.50;;;;;;;12.84;100.00;101429.50;5077553;28;20072;-74
2022/05/22 02:39:11;;;;;;;12.18;5.20;;;;;;;12.81;100.00;101425.53;5083455;28;20074;-74
2022/05/22 02:41:38;;;;;;;13.93;5.38;;;;;;;12.81;100.00;101424.72;5076129;28;20063;-75
2022/05/22 02:44:04;;;;;;;17.77;5.60;;;;;;;12.77;100.00;101413.63;5075217;28;20536;-75
2022/05/22 02:46:31;;;;;;;16.50;6.07;;;;;;;12.71;100.00;101403.28;5087961;28;20040;-76
2022/05/22 02:48:58;;;;;;;20.88;8.05;;;;;;;12.68;100.00;101415.19;5085963;28;20750;-75
2022/05/22 02:51:24;;;;;;;16.88;7.28;;;;;;;12.66;100.00;101415.56;5076737;28;20062;-74
2022/05/22 02:53:51;;;;;;;17.75;7.20;;;;;;;12.67;100.00;101413.59;5069019;28;20062;-74
2022/05/22 02:56:22;;;;;;;14.50;6.30;;;;;;;12.64;100.00;101414.38;5088175;28;20523;-75
2022/05/22 02:58:49;;;;;;;19.20;6.68;;;;;;;12.63;100.00;101426.69;5074595;28;20154;-75
2022/05/22 03:01:15;;;;;;;18.42;6.43;;;;;;;12.52;100.00;101412.78;5078521;28;20086;-74
2022/05/22 03:03:42;;;;;;;15.52;5.75;;;;;;;12.56;100.00;101421.91;5083649;28;20535;-74
2022/05/22 03:08:54;;;;;;;19.13;6.90;;;;;;;12.57;100.00;101420.72;5086574;28;20135;-75
2022/05/22 03:11:20;;;;;;;16.73;6.72;;;;;;;12.53;100.00;101405.25;5070766;28;20051;-76
2022/05/22 03:13:47;;;;;;;17.73;6.72;;;;;;;12.54;100.00;101407.63;5080227;28;20045;-75
2022/05/22 03:16:15;;;;;;;15.05;6.47;;;;;;;12.56;100.00;101407.25;5083506;28;20058;-75
2022/05/22 03:18:42;;;;;;;16.85;7.05;;;;;;;12.57;100.00;101417.16;5084616;28;20051;-75
2022/05/22 03:21:08;;;;;;;12.70;5.90;;;;;;;12.61;100.00;101415.16;5069192;28;20064;-76
2022/05/22 03:23:35;;;;;;;15.70;6.32;;;;;;;12.59;100.00;101412.00;5070694;28;20055;-78
2022/05/22 03:26:01;;;;;;;16.15;6.38;;;;;;;12.58;100.00;101410.41;5088603;28;20075;-74
2022/05/22 03:28:28;;;;;;;17.23;6.10;;;;;;;12.52;100.00;101400.91;5079157;28;20048;-75
2022/05/22 03:30:54;;;;;;;12.98;5.90;;;;;;;12.55;100.00;101408.41;5069244;28;20045;-74
2022/05/22 03:33:21;;;;;;;14.85;6.93;;;;;;;12.55;100.00;101408.41;5069284;28;20053;-75
2022/05/22 03:35:47;;;;;;;15.95;5.97;;;;;;;12.57;100.00;101409.63;5084783;28;20129;-75
2022/05/22 03:38:14;;;;;;;19.48;6.65;;;;;;;12.58;100.00;101404.84;5081569;28;20071;-75
2022/05/22 03:40:47;;;;;;;15.27;6.88;;;;;;;12.57;100.00;101403.28;5076094;28;20060;-76
2022/05/22 03:43:16;;;;;;;17.33;6.43;;;;;;;12.56;100.00;101394.13;5068691;28;20052;-75
2022/05/22 03:45:43;;;;;;;19.02;6.60;;;;;;;12.57;100.00;101392.16;5073953;28;20048;-74
2022/05/22 03:48:11;;;;;;;16.50;6.57;;;;;;;12.59;100.00;101393.34;5084794;28;20044;-75
2022/05/22 03:50:38;;;;;;;12.50;6.20;;;;;;;12.59;100.00;101393.34;5076516;28;20516;-76
2022/05/22 03:53:04;;;;;;;16.45;6.40;;;;;;;12.59;100.00;101389.81;5084774;28;20846;-76
2022/05/22 03:55:31;;;;;;;14.05;5.63;;;;;;;12.60;100.00;101386.63;5088170;28;20592;-75
2022/05/22 03:57:58;;;;;;;14.60;6.25;;;;;;;12.62;100.00;101389.78;5081951;28;20050;-77
2022/05/22 04:00:25;;;;;;;13.13;6.50;;;;;;;12.62;100.00;101389.00;5069183;28;20129;-76
2022/05/22 04:02:51;;;;;;;13.73;5.80;;;;;;;12.60;100.00;101385.84;5069060;28;20099;-76
2022/05/22 04:05:19;;;;;;;19.08;6.68;;;;;;;12.59;100.00;101387.81;5080230;28;20764;-75
2022/05/22 04:07:48;;;;;;;13.98;6.97;;;;;;;12.61;100.00;101387.41;5077199;28;20423;-77
2022/05/22 04:10:16;;;;;;;13.55;6.85;;;;;;;12.67;100.00;101385.84;5085570;28;20127;-75
2022/05/22 04:12:43;;;;;;;20.23;7.05;;;;;;;12.72;100.00;101386.22;5079808;28;20525;-75
2022/05/22 04:15:18;;;;;;;15.73;7.43;;;;;;;12.78;100.00;101381.06;5081043;28;20056;-75
2022/05/22 04:17:45;;;;;;;17.95;7.45;;;;;;;12.81;100.00;101375.53;5075482;28;20044;-75
2022/05/22 04:20:13;;;;;;;13.88;6.57;;;;;;;12.84;100.00;101382.28;5073200;28;20055;-76
2022/05/22 04:25:26;;;;;;;14.30;7.10;;;;;;;12.82;100.00;101379.91;5080025;28;20107;-74
2022/05/22 04:27:53;;;;;;;15.65;7.10;;;;;;;12.82;100.00;101385.44;5085407;28;20048;-76
2022/05/22 04:30:20;;;;;;;16.60;6.75;;;;;;;12.88;100.00;101391.41;5072656;28;20056;-75
2022/05/22 04:32:49;;;;;;;14.68;6.53;;;;;;;12.90;100.00;101400.13;5073840;28;20412;-75
2022/05/22 04:35:17;;;;;;;20.48;7.68;;;;;;;12.91;100.00;101401.72;5087379;28;20136;-75
2022/05/22 04:37:44;;;;;;;19.00;7.32;;;;;;;12.91;100.00;101399.75;5092893;28;20127;-75
2022/05/22 04:40:12;;;;;;;17.20;7.18;;;;;;;12.92;100.00;101393.00;5090153;28;20546;-74
2022/05/22 04:42:40;;;;;;;21.58;7.32;;;;;;;12.93;100.00;101393.78;5089989;28;20092;-74
2022/05/22 04:45:08;;;;;;;18.02;7.75;;;;;;;12.96;100.00;101392.97;5079597;28;20040;-74
2022/05/22 04:47:41;;;;;;;14.43;6.82;;;;;;;12.97;100.00;101400.13;5088278;28;20167;-77
2022/05/22 04:50:08;;;;;;;19.20;7.65;;;;;;;12.98;100.00;101401.72;5091085;28;20060;-76
2022/05/22 04:52:35;;;;;;;17.00;6.70;;;;;;;13.01;100.00;101403.72;5080127;28;20466;-76
2022/05/22 04:55:01;;;;;;;17.02;7.53;;;;;;;13.05;100.00;101396.19;5079309;28;20044;-75
2022/05/22 04:57:28;;;;;;;15.50;7.15;;;;;;;13.01;100.00;101395.41;5079829;28;20139;-74
2022/05/22 04:59:55;;;;;;;18.55;7.32;;;;;;;13.05;100.00;101398.97;5088928;28;20052;-74
2022/05/22 05:02:25;;;;;;;18.48;7.55;;;;;;;13.15;100.00;101400.13;5078278;28;20048;-74
2022/05/22 05:04:55;;;;;;;18.33;8.57;;;;;;;13.29;100.00;101395.38;5086226;28;20052;-74
2022/05/22 05:07:22;;;;;;;17.08;8.18;;;;;;;13.39;100.00;101400.13;5081742;28;20048;-75
2022/05/22 05:09:50;;;;;;;19.70;8.23;;;;;;;13.50;100.00;101391.75;5086617;28;20067;-74
2022/05/22 05:12:17;;;;;;;18.80;8.65;;;;;;;13.59;100.00;101387.38;5073002;28;20075;-74
2022/05/22 05:14:46;;;;;;;17.27;8.25;;;;;;;13.70;100.00;101381.78;5083498;28;20161;-74
2022/05/22 05:17:15;;;;;;;17.77;8.55;;;;;;;13.75;100.00;101386.91;5079793;28;20045;-74
2022/05/22 05:19:42;;;;;;;23.05;9.98;;;;;;;13.84;100.00;101385.28;5083677;28;20076;-74
2022/05/22 05:22:09;;;;;;;19.88;8.93;;;;;;;13.95;100.00;101390.81;5082847;28;20056;-74
2022/05/22 05:24:36;;;;;;;22.23;8.60;;;;;;;14.03;100.00;101389.56;5084750;28;20051;-77
2022/05/22 05:27:03;;;;;;;21.17;9.02;;;;;;;14.14;100.00;101387.56;5085057;28;20044;-77
2022/05/22 05:29:49;;;;;;;22.90;10.32;;;;;;;14.27;100.00;101400.63;5070708;28;20527;-75
2022/05/22 05:32:20;;;;;;;19.73;7.55;;;;;;;14.40;100.00;101387.84;5086461;28;20119;-74
2022/05/22 05:34:54;;;;;;;17.65;8.25;;;;;;;14.51;100.00;101382.97;5076515;28;20047;-74
2022/05/22 05:37:20;;;;;;;18.17;7.60;;;;;;;14.62;100.00;101377.34;5072666;28;20048;-76
2022/05/22 05:39:47;;;;;;;24.02;8.35;;;;;;;14.71;100.00;101386.03;5082125;28;20103;-74
2022/05/22 05:42:13;;;;;;;20.73;8.15;;;;;;;14.82;100.00;101387.53;5070270;28;20142;-75
2022/05/22 05:44:40;;;;;;;20.33;8.70;;;;;;;14.91;100.00;101387.84;5080965;28;20062;-74
2022/05/22 05:47:08;;;;;;;16.63;7.05;;;;;;;15.03;100.00;101390.16;5086780;28;20064;-76
2022/05/22 05:49:39;;;;;;;16.90;7.60;;;;;;;15.11;100.00;101390.88;5083285;28;20052;-75
2022/05/22 05:52:06;;;;;;;21.10;8.55;;;;;;;15.17;100.00;101387.25;5076172;28;20052;-75
2022/05/22 05:54:52;;;;;;;22.63;8.27;;;;;;;15.30;100.00;101391.06;5085041;28;20052;-75
2022/05/22 05:57:19;;;;;;;20.58;8.48;;;;;;;15.36;100.00;101389.47;5082326;28;20053;-77
2022/05/22 05:59:45;;;;;;;19.65;8.23;;;;;;;15.44;100.00;101381.81;5074899;28;20071;-75
2022/05/22 06:02:13;;;;;;;17.55;7.18;;;;;;;15.48;100.00;101376.22;5079004;28;20116;-74
2022/05/22 06:04:41;;;;;;;19.65;8.02;;;;;;;15.57;100.00;101383.66;5082156;28;20048;-74
2022/05/22 06:07:09;;;;;;;16.45;7.32;;;;;;;15.65;100.00;101378.78;5077980;28;20479;-75
2022/05/22 06:09:36;;;;;;;21.98;8.02;;;;;;;15.68;100.00;101383.53;5086073;28;20113;-78
2022/05/22 06:12:04;;;;;;;34.15;10.60;;;;;;;15.72;100.00;101383.53;5077896;28;20059;-76
2022/05/22 06:14:31;;;;;;;19.83;8.65;;;;;;;15.68;100.00;101377.16;5078212;28;20101;-77
2022/05/22 06:16:58;;;;;;;20.52;7.20;;;;;;;15.71;100.00;101381.91;5073957;28;20044;-78
2022/05/22 06:22:13;;;;;;;15.00;6.40;;;;;;;15.74;100.00;101375.50;5086256;28;20084;-79
2022/05/22 06:24:40;;;;;;;20.92;6.65;;;;;;;15.78;100.00;101387.41;5085423;28;20134;-78
2022/05/22 06:27:06;;;;;;;20.80;7.85;;;;;;;15.82;100.00;101380.59;5088041;28;20066;-77
2022/05/22 06:29:33;;;;;;;17.45;8.13;;;;;;;15.84;100.00;101385.75;5074058;28;20091;-77
2022/05/22 06:31:59;;;;;;;17.70;7.22;;;;;;;15.93;100.00;101383.25;5069205;28;20044;-78
2022/05/22 06:34:26;;;;;;;24.23;7.25;;;;;;;16.02;100.00;101387.13;5082393;28;20420;-79
2022/05/22 06:36:53;;;;;;;19.00;6.60;;;;;;;16.07;100.00;101378.28;5083396;28;20162;-77
2022/05/22 06:42:12;;;;;;;14.70;5.50;;;;;;;16.18;100.00;101386.50;5073350;28;20071;-77
2022/05/22 06:44:38;;;;;;;15.63;5.55;;;;;;;16.22;100.00;101390.03;5080748;28;20126;-78
2022/05/22 06:47:05;;;;;;;14.15;5.32;;;;;;;16.26;100.00;101382.44;5087901;28;20142;-77
2022/05/22 06:49:32;;;;;;;12.63;5.05;;;;;;;16.26;100.00;101386.00;5083473;28;20044;-77
2022/05/22 06:51:58;;;;;;;16.38;5.55;;;;;;;16.28;100.00;101380.00;5085757;28;20078;-76
2022/05/22 06:54:25;;;;;;;15.65;4.82;;;;;;;16.33;100.00;101385.13;5077735;28;20449;-78
2022/05/22 06:56:52;;;;;;;16.27;5.22;;;;;;;16.32;100.00;101389.91;5075633;28;20147;-77
2022/05/22 06:59:18;;;;;;;14.32;5.20;;;;;;;16.31;100.00;101393.91;5081571;28;20159;-76
2022/05/22 07:01:45;;;;;;;15.50;6.63;;;;;;;16.38;100.00;101393.81;5085728;28;20529;-75
2022/05/22 07:04:11;;;;;;;19.30;5.57;;;;;;;16.45;100.00;101385.38;5078606;28;20055;-73
2022/05/22 07:06:38;;;;;;;12.93;5.05;;;;;;;16.54;100.00;101384.84;5079575;28;20452;-76
2022/05/22 07:09:05;;;;;;;14.40;5.65;;;;;;;16.60;100.00;101391.53;5075808;28;20048;-76
2022/05/22 07:11:40;;;;;;;12.40;5.05;;;;;;;16.73;100.00;101395.31;5072335;28;20394;-75
2022/05/22 07:14:09;;;;;;;13.05;4.50;;;;;;;16.80;100.00;101398.00;5073160;28;20044;-74
2022/05/22 07:16:37;;;;;;;13.65;4.10;;;;;;;16.85;100.00;101394.72;5077617;28;20160;-75
2022/05/22 07:19:06;;;;;;;14.73;4.38;;;;;;;16.86;99.59;101393.50;5081151;28;20048;-74
2022/05/22 07:21:33;;;;;;;18.42;5.25;;;;;;;16.99;99.25;101398.09;5083070;28;20051;-71
2022/05/22 07:23:59;;;;;;;16.92;4.93;;;;;;;17.06;98.99;101399.97;5072672;28;20168;-69
2022/05/22 07:26:27;;;;;;;13.05;4.25;;;;;;;17.12;98.88;101384.28;5078765;28;20052;-74
2022/05/22 07:28:53;;;;;;;15.38;3.78;;;;;;;17.22;97.62;101391.72;5076869;28;20048;-74
2022/05/22 07:31:23;;;;;;;17.80;4.10;;;;;;;17.28;96.75;101390.00;5071123;28;20428;-74
2022/05/22 07:33:50;;;;;;;14.85;3.45;;;;;;;17.35;95.27;101387.09;5079971;28;20078;-74
2022/05/22 07:36:18;;;;;;;9.55;2.65;;;;;;;17.36;92.26;101389.44;5074848;28;20052;-74
2022/05/22 07:38:45;;;;;;;20.23;3.15;;;;;;;17.36;88.39;101383.06;5076903;28;20512;-75
2022/05/22 07:41:12;;;;;;;9.93;2.80;;;;;;;17.37;88.18;101387.44;5075391;28;20135;-76
2022/05/22 07:43:39;;;;;;;10.13;3.38;;;;;;;17.34;88.80;101380.69;5080927;28;20501;-75
2022/05/22 07:46:08;;;;;;;9.48;2.88;;;;;;;17.44;88.48;101381.72;5080947;28;20048;-75
2022/05/22 07:48:35;;;;;;;13.57;3.20;;;;;;;17.54;88.78;101373.16;5080126;28;20067;-75
2022/05/22 07:51:04;;;;;;;11.30;3.28;;;;;;;17.64;87.10;101383.34;5078988;28;20044;-75
2022/05/22 07:53:31;;;;;;;7.47;2.67;;;;;;;17.73;86.69;101377.19;5083975;28;20062;-74
2022/05/22 07:55:57;;;;;;;11.63;2.92;;;;;;;17.79;85.97;101369.88;5093421;28;20117;-73
2022/05/22 07:58:26;;;;;;;15.00;3.50;;;;;;;17.90;87.08;101376.03;5079857;28;20131;-74
2022/05/22 08:00:54;;;;;;;12.13;3.63;;;;;;;18.02;86.40;101372.56;5088506;28;20050;-76
2022/05/22 08:03:21;;;;;;;10.95;3.50;;;;;;;18.13;85.20;101377.94;5088298;28;20052;-75
2022/05/22 08:05:48;;;;;;;15.93;3.55;;;;;;;18.24;83.23;101378.50;5083420;28;20047;-72
2022/05/22 08:08:16;;;;;;;11.80;3.88;;;;;;;18.27;80.95;101372.81;5076800;28;20067;-72
2022/05/22 08:10:43;;;;;;;9.10;3.08;;;;;;;18.36;81.60;101369.47;5072848;28;20160;-70
2022/05/22 08:13:10;;;;;;;15.52;4.13;;;;;;;18.46;82.90;101358.00;5081073;28;20090;-71
2022/05/22 08:15:39;;;;;;;12.30;2.80;;;;;;;18.53;82.39;101359.84;5080849;28;20055;-72
2022/05/22 08:18:07;;;;;;;11.38;2.90;;;;;;;18.65;80.67;101359.16;5086799;28;20051;-73
2022/05/22 08:20:36;;;;;;;11.93;2.92;;;;;;;18.77;81.06;101361.28;5079478;28;20043;-75
2022/05/22 08:23:06;;;;;;;8.73;3.20;;;;;;;18.84;78.71;101356.28;5084271;28;21600;-73
2022/05/22 08:25:33;;;;;;;11.25;3.03;;;;;;;18.91;78.68;101358.13;5084759;28;20048;-74
2022/05/22 08:27:59;;;;;;;11.98;3.40;;;;;;;19.00;79.38;101353.47;5086253;28;20048;-75
2022/05/22 08:30:28;;;;;;;11.18;3.40;;;;;;;19.04;75.91;101347.78;5077391;28;20059;-75
2022/05/22 08:32:55;;;;;;;14.68;3.38;;;;;;;18.97;74.12;101339.53;5076509;28;20506;-75
2022/05/22 08:35:27;;;;;;;17.65;3.53;;;;;;;19.06;75.39;101336.88;5086159;28;20155;-74
2022/05/22 08:37:53;;;;;;;11.88;3.08;;;;;;;19.19;75.21;101332.13;5077670;28;20163;-74
2022/05/22 08:40:23;;;;;;;12.32;3.08;;;;;;;19.34;74.56;101330.56;5079861;28;20083;-76
2022/05/22 08:42:54;;;;;;;7.82;3.15;;;;;;;19.41;73.85;101321.94;5084969;28;20052;-74
2022/05/22 08:45:26;;;;;;;18.67;3.20;;;;;;;19.42;72.03;101306.69;5076493;28;20052;-75
2022/05/22 08:48:12;;;;;;;13.70;3.67;;;;;;;19.50;72.58;101314.47;5084890;28;20049;-74
2022/05/22 08:50:39;;;;;;;12.57;3.17;;;;;;;19.62;72.83;101316.53;5086199;28;20131;-76
2022/05/22 08:53:25;;;;;;;14.23;4.00;;;;;;;19.67;68.01;101317.97;5077819;28;20136;-73
2022/05/22 08:58:57;;;;;;;15.80;3.85;;;;;;;19.85;69.17;101324.66;5073361;28;20044;-70
2022/05/22 09:01:29;;;;;;;13.75;3.80;;;;;;;20.04;69.62;101315.25;5082722;28;20052;-69
2022/05/22 09:04:28;;;;;;;11.10;2.95;;;;;;;20.04;63.64;101312.44;5082237;28;20412;-73
2022/05/22 09:07:06;;;;;;;17.60;4.65;;;;;;;20.16;65.90;101308.13;5075865;28;20890;-72
2022/05/22 09:09:37;;;;;;;15.35;3.92;;;;;;;20.29;66.57;101304.06;5088781;28;20036;-73
2022/05/22 09:12:36;;;;;;;11.25;3.90;;;;;;;20.46;64.56;101301.13;5078144;28;20044;-70
2022/05/22 09:15:19;;;;;;;14.07;4.80;;;;;;;20.55;65.80;101304.81;5064814;28;20113;-73
2022/05/22 09:17:55;;;;;;;14.75;4.13;;;;;;;20.66;63.47;101298.88;5086610;28;20504;-73
2022/05/22 09:20:39;;;;;;;13.23;4.07;;;;;;;20.68;60.62;101290.78;5084341;28;20054;-73
2022/05/22 09:23:22;;;;;;;16.23;4.40;;;;;;;20.55;61.84;101287.97;5072029;28;20074;-72
2022/05/22 09:25:57;;;;;;;12.48;4.20;;;;;;;20.66;63.15;101282.00;5084311;28;20051;-73
2022/05/22 09:28:33;;;;;;;16.17;4.32;;;;;;;20.71;59.61;101281.41;5072891;28;20140;-72
2022/05/22 09:31:26;;;;;;;16.33;4.57;;;;;;;20.72;59.71;101268.94;5068297;28;20059;-73
2022/05/22 09:34:12;;;;;;;16.55;4.38;;;;;;;20.97;61.38;101266.06;5070479;28;20420;-72
2022/05/22 09:36:47;;;;;;;;;;;;;;;21.23;60.15;101264.75;5077219;28;20044;-72
2022/05/22 09:39:48;;;;;;;15.48;5.40;;;;;;;21.32;57.80;101261.97;5081702;28;19928;-73
2022/05/22 09:42:14;;;;;;;15.63;5.40;;;;;;;21.46;59.26;101255.84;5076683;28;20048;-73
2022/05/22 09:45:09;;;;;;;12.95;4.50;;;;;;;21.58;58.55;101252.16;5077352;28;20483;-73
2022/05/22 09:48:06;;;;;;;15.10;5.00;;;;;;;21.70;56.69;101249.25;5076688;28;20128;-71
2022/05/22 09:51:05;;;;;;;15.50;5.00;;;;;;;21.72;57.24;101257.25;5070555;28;20212;-71
2022/05/22 09:53:55;;;;;;;14.15;5.40;;;;;;;21.72;55.85;101249.63;5079333;28;20090;-75
2022/05/22 09:56:56;;;;;;;20.27;4.80;;;;;;;21.87;56.84;101247.06;5087725;28;20484;-74
2022/05/22 09:59:54;;;;;;;15.60;5.07;;;;;;;22.09;55.52;101253.41;5093292;28;20064;-72
2022/05/22 10:02:27;;;;;;;14.07;4.60;;;;;;;22.28;54.58;101260.69;5084408;28;20053;-72
2022/05/22 10:05:02;;;;;;;11.15;4.55;;;;;;;22.09;52.07;101247.78;5084313;28;20067;-73
2022/05/22 10:07:43;;;;;;;19.00;5.35;;;;;;;22.37;54.78;101247.41;5079279;28;20056;-72
2022/05/22 10:10:09;;;;;;;16.27;6.00;;;;;;;22.52;54.67;101250.44;5077179;28;20131;-72
2022/05/22 10:13:10;;;;;;;16.92;5.53;;;;;;;22.62;53.15;101246.41;5076065;28;20123;-72
2022/05/22 10:15:51;;;;;;;12.15;4.65;;;;;;;22.82;52.26;101240.31;5079089;28;20131;-74
2022/05/22 10:18:55;;;;;;;12.80;4.72;;;;;;;22.98;51.06;101251.31;5078477;28;20043;-74
2022/05/22 10:21:48;;;;;;;20.58;5.65;;;;;;;22.92;48.50;101251.16;5082348;28;20900;-74
2022/05/22 10:24:31;;;;;;;19.65;7.20;;;;;;;22.84;51.68;101241.41;5070950;28;20504;-74
2022/05/22 10:27:42;;;;;;;15.30;5.10;;;;;;;22.75;51.15;101245.00;5084119;28;20052;-72
2022/05/22 10:30:21;;;;;;;13.80;4.75;;;;;;;22.79;51.29;101237.16;5071534;28;20131;-74
2022/05/22 10:33:10;;;;;;;13.48;4.78;;;;;;;23.08;50.95;101233.88;5075387;28;20044;-72
2022/05/22 10:35:47;;;;;;;14.65;5.45;;;;;;;23.24;49.37;101242.06;5076296;28;20041;-72
2022/05/22 10:38:17;;;;;;;18.02;5.43;;;;;;;23.49;50.88;101247.38;5071417;28;20117;-72
2022/05/22 10:43:39;;;;;;;16.25;5.20;;;;;;;23.74;49.90;101235.72;5074256;28;20055;-72
2022/05/22 10:46:06;;;;;;;16.60;5.43;;;;;;;23.88;48.34;101228.59;5073246;28;20127;-73
2022/05/22 10:48:35;;;;;;;15.80;5.22;;;;;;;23.89;48.37;101227.34;5079623;28;20071;-74
2022/05/22 10:51:09;;;;;;;19.75;5.97;;;;;;;23.80;47.30;101230.19;5081767;28;20063;-74
2022/05/22 10:53:50;;;;;;;18.98;5.40;;;;;;;23.98;47.48;101227.31;5071504;28;20052;-74
2022/05/22 10:56:21;;;;;;;14.98;4.90;;;;;;;24.24;47.67;101222.81;5082307;28;20947;-74
2022/05/22 10:58:56;;;;;;;14.77;5.47;;;;;;;24.41;46.92;101221.16;5081452;28;20135;-75
2022/05/22 11:01:34;;;;;;;17.27;6.00;;;;;;;24.57;45.19;101215.09;5075924;28;20143;-73
2022/05/22 11:04:12;;;;;;;18.73;5.45;;;;;;;24.68;46.18;101207.66;5072391;28;20539;-74
2022/05/22 11:06:51;;;;;;;14.85;5.35;;;;;;;23.99;44.12;101212.72;5078038;28;20554;-74
2022/05/22 11:09:28;;;;;;;20.33;6.00;;;;;;;23.65;44.63;101201.06;5079451;28;20092;-74
2022/05/22 11:12:25;;;;;;;14.35;5.07;;;;;;;24.04;44.93;101183.81;5081779;28;20052;-76
2022/05/22 11:15:05;;;;;;;14.48;5.35;;;;;;;24.45;45.32;101184.97;5075374;28;20610;-71
2022/05/22 11:17:32;;;;;;;18.10;4.45;;;;;;;24.85;46.01;101183.31;5078928;28;21012;-72
2022/05/22 11:20:08;;;;;;;16.50;5.25;;;;;;;25.16;45.08;101177.19;5078017;28;20059;-73
2022/05/22 11:22:58;;;;;;;13.15;5.20;;;;;;;25.46;44.31;101181.63;5085159;28;20475;-75
2022/05/22 11:26:02;;;;;;;18.90;5.40;;;;;;;25.73;43.56;101172.81;5067867;28;20044;-74
2022/05/22 11:28:55;;;;;;;15.65;4.97;;;;;;;25.60;40.63;101180.06;5083571;28;20573;-74
2022/05/22 11:31:26;;;;;;;16.40;5.78;;;;;;;25.81;40.71;101171.13;5072105;28;20138;-75
2022/05/22 11:34:18;;;;;;;15.63;5.28;;;;;;;26.04;42.08;101163.78;5078471;28;20446;-77
2022/05/22 11:36:50;;;;;;;15.27;4.82;;;;;;;26.33;41.17;101153.13;5080110;28;20052;-77
2022/05/22 11:39:32;;;;;;;15.95;4.25;;;;;;;26.14;38.50;101156.72;5085210;28;20045;-77
2022/05/22 11:42:26;;;;;;;17.23;5.35;;;;;;;25.57;38.25;101144.97;5082542;28;20071;-77
2022/05/22 11:45:33;;;;;;;14.57;4.53;;;;;;;25.64;37.27;101135.31;5078366;28;20140;-77
2022/05/22 11:48:18;;;;;;;;;;;;;;;25.78;37.68;101129.59;5086611;28;20048;-77
2022/05/22 11:50:53;;;;;;;14.43;4.28;;;;;;;26.04;37.48;101124.06;5075409;28;20645;-76